sensor_id;sensor_type;location;lat;lon;timestamp;P1;durP1;ratioP1;P2;durP2;ratioP2
32876;SDS011;19226;51.600;8.034;2022-09-29T00:19:10;3.00;;;2.75;;
32876;SDS011;19226;51.600;8.034;2022-09-29T00:21:39;2.78;;;2.58;;
32876;SDS011;19226;51.600;8.034;2022-09-29T00:24:05;2.92;;;2.50;;
32876;SDS011;19226;51.600;8.034;2022-09-29T00:26:33;2.75;;;2.58;;
32876;SDS011;19226;51.600;8.034;2022-09-29T00:29:02;2.78;;;2.47;;
32876;SDS011;19226;51.600;8.034;2022-09-29T00:31:30;3.80;;;2.67;;
32876;SDS011;19226;51.600;8.034;2022-09-29T00:33:58;2.67;;;2.47;;
32876;SDS011;19226;51.600;8.034;2022-09-29T00:36:25;2.58;;;2.38;;
32876;SDS011;19226;51.600;8.034;2022-09-29T00:38:55;2.30;;;2.20;;
32876;SDS011;19226;51.600;8.034;2022-09-29T00:50:42;2.60;;;2.40;;
32876;SDS011;19226;51.600;8.034;2022-09-29T00:53:14;9.80;;;2.78;;
32876;SDS011;19226;51.600;8.034;2022-09-29T00:55:50;2.60;;;2.40;;
32876;SDS011;19226;51.600;8.034;2022-09-29T01:02:27;4.15;;;3.35;;
32876;SDS011;19226;51.600;8.034;2022-09-29T01:04:55;3.40;;;3.10;;
32876;SDS011;19226;51.600;8.034;2022-09-29T01:07:23;3.78;;;3.22;;
32876;SDS011;19226;51.600;8.034;2022-09-29T01:09:50;4.78;;;2.72;;
32876;SDS011;19226;51.600;8.034;2022-09-29T01:12:23;3.80;;;3.38;;
32876;SDS011;19226;51.600;8.034;2022-09-29T01:17:56;3.92;;;3.67;;
32876;SDS011;19226;51.600;8.034;2022-09-29T01:20:22;3.15;;;2.95;;
32876;SDS011;19226;51.600;8.034;2022-09-29T01:22:59;4.15;;;3.75;;
32876;SDS011;19226;51.600;8.034;2022-09-29T01:36:09;4.60;;;3.90;;
32876;SDS011;19226;51.600;8.034;2022-09-29T01:45:11;4.25;;;3.80;;
32876;SDS011;19226;51.600;8.034;2022-09-29T01:47:52;5.35;;;3.75;;
32876;SDS011;19226;51.600;8.034;2022-09-29T01:50:27;4.70;;;4.30;;
32876;SDS011;19226;51.600;8.034;2022-09-29T01:53:02;8.85;;;4.07;;
32876;SDS011;19226;51.600;8.034;2022-09-29T02:02:26;9.77;;;4.38;;
32876;SDS011;19226;51.600;8.034;2022-09-29T02:10:54;4.75;;;4.35;;
32876;SDS011;19226;51.600;8.034;2022-09-29T02:13:31;4.90;;;4.40;;
32876;SDS011;19226;51.600;8.034;2022-09-29T02:16:14;5.75;;;5.15;;
32876;SDS011;19226;51.600;8.034;2022-09-29T02:18:47;5.47;;;4.97;;
32876;SDS011;19226;51.600;8.034;2022-09-29T02:21:37;5.57;;;5.00;;
32876;SDS011;19226;51.600;8.034;2022-09-29T02:24:05;5.75;;;5.20;;
32876;SDS011;19226;51.600;8.034;2022-09-29T02:26:32;6.97;;;4.97;;
32876;SDS011;19226;51.600;8.034;2022-09-29T02:32:51;10.60;;;5.43;;
32876;SDS011;19226;51.600;8.034;2022-09-29T02:35:17;5.78;;;5.28;;
32876;SDS011;19226;51.600;8.034;2022-09-29T02:40:56;8.40;;;6.38;;
32876;SDS011;19226;51.600;8.034;2022-09-29T02:43:57;9.60;;;6.97;;
32876;SDS011;19226;51.600;8.034;2022-09-29T02:46:55;16.65;;;7.32;;
32876;SDS011;19226;51.600;8.034;2022-09-29T02:52:55;8.15;;;7.07;;
32876;SDS011;19226;51.600;8.034;2022-09-29T02:55:58;7.55;;;6.28;;
32876;SDS011;19226;51.600;8.034;2022-09-29T03:05:21;8.93;;;7.07;;
32876;SDS011;19226;51.600;8.034;2022-09-29T03:10:56;10.32;;;7.68;;
32876;SDS011;19226;51.600;8.034;2022-09-29T03:13:37;10.75;;;7.30;;
32876;SDS011;19226;51.600;8.034;2022-09-29T03:16:03;10.15;;;7.05;;
32876;SDS011;19226;51.600;8.034;2022-09-29T03:21:35;11.30;;;7.53;;
32876;SDS011;19226;51.600;8.034;2022-09-29T03:24:03;8.25;;;7.07;;
32876;SDS011;19226;51.600;8.034;2022-09-29T03:26:31;8.32;;;6.88;;
32876;SDS011;19226;51.600;8.034;2022-09-29T03:32:03;11.98;;;8.32;;
32876;SDS011;19226;51.600;8.034;2022-09-29T03:34:34;10.35;;;7.45;;
32876;SDS011;19226;51.600;8.034;2022-09-29T03:37:01;12.52;;;8.10;;
32876;SDS011;19226;51.600;8.034;2022-09-29T03:39:29;7.63;;;6.82;;
32876;SDS011;19226;51.600;8.034;2022-09-29T03:42:10;9.77;;;7.90;;
32876;SDS011;19226;51.600;8.034;2022-09-29T03:44:37;10.23;;;8.00;;
32876;SDS011;19226;51.600;8.034;2022-09-29T03:47:04;10.68;;;7.55;;
32876;SDS011;19226;51.600;8.034;2022-09-29T03:52:37;16.90;;;9.02;;
32876;SDS011;19226;51.600;8.034;2022-09-29T03:55:04;12.50;;;8.68;;
32876;SDS011;19226;51.600;8.034;2022-09-29T03:57:32;15.93;;;8.73;;
32876;SDS011;19226;51.600;8.034;2022-09-29T04:04:19;10.80;;;8.60;;
32876;SDS011;19226;51.600;8.034;2022-09-29T04:06:46;12.20;;;8.80;;
32876;SDS011;19226;51.600;8.034;2022-09-29T04:12:18;15.30;;;9.35;;
32876;SDS011;19226;51.600;8.034;2022-09-29T04:14:45;13.88;;;9.90;;
32876;SDS011;19226;51.600;8.034;2022-09-29T04:17:12;13.07;;;9.10;;
32876;SDS011;19226;51.600;8.034;2022-09-29T04:19:38;16.38;;;9.55;;
32876;SDS011;19226;51.600;8.034;2022-09-29T04:22:04;14.18;;;9.95;;
32876;SDS011;19226;51.600;8.034;2022-09-29T04:24:31;12.80;;;9.90;;
32876;SDS011;19226;51.600;8.034;2022-09-29T04:26:57;14.32;;;9.95;;
32876;SDS011;19226;51.600;8.034;2022-09-29T04:29:26;16.77;;;9.80;;
32876;SDS011;19226;51.600;8.034;2022-09-29T04:31:53;16.38;;;9.30;;
32876;SDS011;19226;51.600;8.034;2022-09-29T04:34:20;11.10;;;9.27;;
32876;SDS011;19226;51.600;8.034;2022-09-29T04:37:11;11.45;;;8.65;;
32876;SDS011;19226;51.600;8.034;2022-09-29T04:40:10;16.10;;;8.15;;
32876;SDS011;19226;51.600;8.034;2022-09-29T04:42:44;12.25;;;7.65;;
32876;SDS011;19226;51.600;8.034;2022-09-29T04:45:10;13.77;;;9.02;;
32876;SDS011;19226;51.600;8.034;2022-09-29T04:50:49;13.38;;;9.23;;
32876;SDS011;19226;51.600;8.034;2022-09-29T04:56:05;12.02;;;9.55;;
32876;SDS011;19226;51.600;8.034;2022-09-29T04:58:35;14.00;;;8.55;;
32876;SDS011;19226;51.600;8.034;2022-09-29T05:01:07;17.83;;;9.73;;
32876;SDS011;19226;51.600;8.034;2022-09-29T05:03:40;10.80;;;9.32;;
32876;SDS011;19226;51.600;8.034;2022-09-29T05:06:08;12.68;;;9.00;;
32876;SDS011;19226;51.600;8.034;2022-09-29T05:08:35;12.00;;;8.80;;
32876;SDS011;19226;51.600;8.034;2022-09-29T05:11:02;12.00;;;8.75;;
32876;SDS011;19226;51.600;8.034;2022-09-29T05:13:41;14.40;;;8.98;;
32876;SDS011;19226;51.600;8.034;2022-09-29T05:16:08;16.85;;;8.77;;
32876;SDS011;19226;51.600;8.034;2022-09-29T05:21:24;12.73;;;8.88;;
32876;SDS011;19226;51.600;8.034;2022-09-29T05:23:59;15.50;;;8.65;;
32876;SDS011;19226;51.600;8.034;2022-09-29T05:26:25;9.23;;;8.00;;
32876;SDS011;19226;51.600;8.034;2022-09-29T05:29:02;15.40;;;9.88;;
32876;SDS011;19226;51.600;8.034;2022-09-29T05:34:59;16.58;;;10.02;;
32876;SDS011;19226;51.600;8.034;2022-09-29T05:37:58;19.85;;;11.02;;
32876;SDS011;19226;51.600;8.034;2022-09-29T05:47:28;15.30;;;10.43;;
32876;SDS011;19226;51.600;8.034;2022-09-29T05:50:03;16.27;;;10.27;;
32876;SDS011;19226;51.600;8.034;2022-09-29T05:52:31;17.48;;;10.10;;
32876;SDS011;19226;51.600;8.034;2022-09-29T05:57:47;16.13;;;10.88;;
32876;SDS011;19226;51.600;8.034;2022-09-29T06:00:15;17.55;;;10.65;;
32876;SDS011;19226;51.600;8.034;2022-09-29T06:02:41;17.95;;;10.73;;
32876;SDS011;19226;51.600;8.034;2022-09-29T06:21:21;16.10;;;10.63;;
32876;SDS011;19226;51.600;8.034;2022-09-29T06:47:22;15.88;;;10.75;;
32876;SDS011;19226;51.600;8.034;2022-09-29T06:52:49;13.63;;;10.43;;
32876;SDS011;19226;51.600;8.034;2022-09-29T06:55:21;14.95;;;10.93;;
32876;SDS011;19226;51.600;8.034;2022-09-29T06:57:49;20.00;;;10.43;;
32876;SDS011;19226;51.600;8.034;2022-09-29T07:06:44;11.93;;;9.02;;
32876;SDS011;19226;51.600;8.034;2022-09-29T07:09:19;9.98;;;8.35;;
32876;SDS011;19226;51.600;8.034;2022-09-29T07:11:50;14.15;;;9.20;;
32876;SDS011;19226;51.600;8.034;2022-09-29T07:14:22;13.02;;;8.90;;
32876;SDS011;19226;51.600;8.034;2022-09-29T07:17:00;10.73;;;8.90;;
32876;SDS011;19226;51.600;8.034;2022-09-29T07:20:18;14.77;;;9.50;;
32876;SDS011;19226;51.600;8.034;2022-09-29T07:23:15;10.75;;;8.73;;
32876;SDS011;19226;51.600;8.034;2022-09-29T07:25:51;10.80;;;9.52;;
32876;SDS011;19226;51.600;8.034;2022-09-29T07:28:44;13.63;;;9.65;;
32876;SDS011;19226;51.600;8.034;2022-09-29T07:34:34;10.52;;;9.10;;
32876;SDS011;19226;51.600;8.034;2022-09-29T07:39:43;12.30;;;8.40;;
32876;SDS011;19226;51.600;8.034;2022-09-29T07:45:08;9.88;;;7.68;;
32876;SDS011;19226;51.600;8.034;2022-09-29T07:47:38;11.23;;;7.78;;
32876;SDS011;19226;51.600;8.034;2022-09-29T07:50:26;8.17;;;7.17;;
32876;SDS011;19226;51.600;8.034;2022-09-29T07:53:29;8.88;;;6.90;;
32876;SDS011;19226;51.600;8.034;2022-09-29T07:56:18;7.45;;;6.68;;
32876;SDS011;19226;51.600;8.034;2022-09-29T07:58:54;8.18;;;7.38;;
32876;SDS011;19226;51.600;8.034;2022-09-29T08:02:02;7.15;;;6.28;;
32876;SDS011;19226;51.600;8.034;2022-09-29T08:04:45;10.18;;;6.38;;
32876;SDS011;19226;51.600;8.034;2022-09-29T08:20:52;10.95;;;6.60;;
32876;SDS011;19226;51.600;8.034;2022-09-29T08:28:51;11.60;;;6.32;;
32876;SDS011;19226;51.600;8.034;2022-09-29T08:43:26;9.02;;;6.20;;
32876;SDS011;19226;51.600;8.034;2022-09-29T08:59:51;5.82;;;4.70;;
32876;SDS011;19226;51.600;8.034;2022-09-29T09:07:07;5.80;;;4.78;;
32876;SDS011;19226;51.600;8.034;2022-09-29T09:17:08;5.90;;;4.60;;
32876;SDS011;19226;51.600;8.034;2022-09-29T09:23:19;5.97;;;4.70;;
32876;SDS011;19226;51.600;8.034;2022-09-29T09:28:56;6.85;;;4.00;;
32876;SDS011;19226;51.600;8.034;2022-09-29T09:31:53;6.75;;;4.45;;
32876;SDS011;19226;51.600;8.034;2022-09-29T09:34:52;6.20;;;4.55;;
32876;SDS011;19226;51.600;8.034;2022-09-29T09:37:29;8.07;;;4.63;;
32876;SDS011;19226;51.600;8.034;2022-09-29T09:42:40;6.85;;;5.50;;
32876;SDS011;19226;51.600;8.034;2022-09-29T09:48:20;9.13;;;4.57;;
32876;SDS011;19226;51.600;8.034;2022-09-29T09:51:08;7.30;;;5.38;;
32876;SDS011;19226;51.600;8.034;2022-09-29T09:54:03;7.50;;;5.15;;
32876;SDS011;19226;51.600;8.034;2022-09-29T10:06:21;6.50;;;5.10;;
32876;SDS011;19226;51.600;8.034;2022-09-29T10:12:29;7.13;;;5.15;;
32876;SDS011;19226;51.600;8.034;2022-09-29T10:15:03;6.70;;;3.80;;
32876;SDS011;19226;51.600;8.034;2022-09-29T10:18:48;5.05;;;3.83;;
32876;SDS011;19226;51.600;8.034;2022-09-29T10:21:42;7.28;;;4.25;;
32876;SDS011;19226;51.600;8.034;2022-09-29T10:25:15;5.05;;;4.03;;
32876;SDS011;19226;51.600;8.034;2022-09-29T10:27:49;6.20;;;3.95;;
32876;SDS011;19226;51.600;8.034;2022-09-29T10:30:39;4.68;;;3.83;;
32876;SDS011;19226;51.600;8.034;2022-09-29T10:33:07;8.05;;;3.47;;
32876;SDS011;19226;51.600;8.034;2022-09-29T10:36:01;6.40;;;2.85;;
32876;SDS011;19226;51.600;8.034;2022-09-29T10:38:36;5.28;;;3.33;;
32876;SDS011;19226;51.600;8.034;2022-09-29T10:41:08;6.30;;;3.10;;
32876;SDS011;19226;51.600;8.034;2022-09-29T10:43:47;4.78;;;2.60;;
32876;SDS011;19226;51.600;8.034;2022-09-29T10:46:33;4.93;;;3.47;;
32876;SDS011;19226;51.600;8.034;2022-09-29T10:52:02;2.67;;;2.47;;
32876;SDS011;19226;51.600;8.034;2022-09-29T10:54:38;5.63;;;2.65;;
32876;SDS011;19226;51.600;8.034;2022-09-29T10:57:27;4.88;;;2.50;;
32876;SDS011;19226;51.600;8.034;2022-09-29T11:00:26;4.80;;;2.30;;
32876;SDS011;19226;51.600;8.034;2022-09-29T11:06:26;5.15;;;2.30;;
32876;SDS011;19226;51.600;8.034;2022-09-29T11:15:24;3.33;;;2.35;;
32876;SDS011;19226;51.600;8.034;2022-09-29T11:23:50;4.45;;;2.10;;
32876;SDS011;19226;51.600;8.034;2022-09-29T11:36:21;4.20;;;1.77;;
32876;SDS011;19226;51.600;8.034;2022-09-29T11:42:54;2.30;;;2.10;;
32876;SDS011;19226;51.600;8.034;2022-09-29T11:45:36;4.57;;;2.33;;
32876;SDS011;19226;51.600;8.034;2022-09-29T11:48:27;5.45;;;2.50;;
32876;SDS011;19226;51.600;8.034;2022-09-29T12:01:17;8.68;;;2.35;;
32876;SDS011;19226;51.600;8.034;2022-09-29T12:06:54;2.95;;;2.00;;
32876;SDS011;19226;51.600;8.034;2022-09-29T12:10:43;3.88;;;1.42;;
32876;SDS011;19226;51.600;8.034;2022-09-29T12:15:53;6.07;;;2.38;;
32876;SDS011;19226;51.600;8.034;2022-09-29T12:21:36;2.92;;;1.88;;
32876;SDS011;19226;51.600;8.034;2022-09-29T12:26:58;2.67;;;1.80;;
32876;SDS011;19226;51.600;8.034;2022-09-29T12:32:36;1.90;;;1.80;;
32876;SDS011;19226;51.600;8.034;2022-09-29T12:35:13;8.65;;;2.25;;
32876;SDS011;19226;51.600;8.034;2022-09-29T12:38:08;6.55;;;2.08;;
32876;SDS011;19226;51.600;8.034;2022-09-29T12:44:15;2.20;;;1.70;;
32876;SDS011;19226;51.600;8.034;2022-09-29T12:46:48;5.23;;;1.73;;
32876;SDS011;19226;51.600;8.034;2022-09-29T12:52:17;3.83;;;1.50;;
32876;SDS011;19226;51.600;8.034;2022-09-29T12:54:53;8.07;;;2.80;;
32876;SDS011;19226;51.600;8.034;2022-09-29T12:57:31;4.07;;;1.92;;
32876;SDS011;19226;51.600;8.034;2022-09-29T13:00:14;3.45;;;1.63;;
32876;SDS011;19226;51.600;8.034;2022-09-29T13:02:58;5.25;;;1.73;;
32876;SDS011;19226;51.600;8.034;2022-09-29T13:06:01;2.97;;;1.30;;
32876;SDS011;19226;51.600;8.034;2022-09-29T13:14:54;3.55;;;1.70;;
32876;SDS011;19226;51.600;8.034;2022-09-29T13:17:33;2.00;;;1.52;;
32876;SDS011;19226;51.600;8.034;2022-09-29T13:28:31;4.22;;;1.80;;
32876;SDS011;19226;51.600;8.034;2022-09-29T13:31:13;3.33;;;1.70;;
32876;SDS011;19226;51.600;8.034;2022-09-29T13:39:02;4.28;;;1.63;;
32876;SDS011;19226;51.600;8.034;2022-09-29T13:41:36;3.17;;;1.50;;
32876;SDS011;19226;51.600;8.034;2022-09-29T13:46:55;2.85;;;2.03;;
32876;SDS011;19226;51.600;8.034;2022-09-29T13:49:25;2.58;;;2.35;;
32876;SDS011;19226;51.600;8.034;2022-09-29T13:51:57;2.33;;;2.00;;
32876;SDS011;19226;51.600;8.034;2022-09-29T13:54:50;3.70;;;2.60;;
32876;SDS011;19226;51.600;8.034;2022-09-29T14:00:21;1.48;;;0.90;;
32876;SDS011;19226;51.600;8.034;2022-09-29T14:02:59;3.78;;;1.20;;
32876;SDS011;19226;51.600;8.034;2022-09-29T14:11:03;1.00;;;0.90;;
32876;SDS011;19226;51.600;8.034;2022-09-29T14:13:45;10.57;;;1.50;;
32876;SDS011;19226;51.600;8.034;2022-09-29T14:31:32;1.58;;;1.17;;
32876;SDS011;19226;51.600;8.034;2022-09-29T14:37:26;6.05;;;2.13;;
32876;SDS011;19226;51.600;8.034;2022-09-29T14:39:58;2.33;;;2.15;;
32876;SDS011;19226;51.600;8.034;2022-09-29T14:42:45;3.67;;;1.42;;
32876;SDS011;19226;51.600;8.034;2022-09-29T14:45:12;3.63;;;1.58;;
32876;SDS011;19226;51.600;8.034;2022-09-29T14:48:26;4.35;;;1.50;;
32876;SDS011;19226;51.600;8.034;2022-09-29T14:51:27;2.75;;;1.85;;
32876;SDS011;19226;51.600;8.034;2022-09-29T15:03:16;6.00;;;2.20;;
32876;SDS011;19226;51.600;8.034;2022-09-29T15:06:27;3.42;;;1.30;;
32876;SDS011;19226;51.600;8.034;2022-09-29T15:08:55;3.42;;;1.60;;
32876;SDS011;19226;51.600;8.034;2022-09-29T15:11:51;3.38;;;2.17;;
32876;SDS011;19226;51.600;8.034;2022-09-29T15:14:23;4.40;;;2.00;;
32876;SDS011;19226;51.600;8.034;2022-09-29T15:16:57;3.65;;;2.20;;
32876;SDS011;19226;51.600;8.034;2022-09-29T15:19:34;5.75;;;2.13;;
32876;SDS011;19226;51.600;8.034;2022-09-29T15:28:11;3.63;;;2.05;;
32876;SDS011;19226;51.600;8.034;2022-09-29T15:30:47;2.40;;;2.20;;
32876;SDS011;19226;51.600;8.034;2022-09-29T15:35:46;3.53;;;1.85;;
32876;SDS011;19226;51.600;8.034;2022-09-29T15:38:28;4.35;;;1.80;;
32876;SDS011;19226;51.600;8.034;2022-09-29T15:41:04;4.25;;;1.80;;
32876;SDS011;19226;51.600;8.034;2022-09-29T15:43:53;2.72;;;1.45;;
32876;SDS011;19226;51.600;8.034;2022-09-29T15:46:34;4.10;;;1.65;;
32876;SDS011;19226;51.600;8.034;2022-09-29T15:51:33;4.35;;;1.42;;
32876;SDS011;19226;51.600;8.034;2022-09-29T15:54:04;3.50;;;1.50;;
32876;SDS011;19226;51.600;8.034;2022-09-29T15:56:43;1.95;;;1.15;;
32876;SDS011;19226;51.600;8.034;2022-09-29T16:07:18;3.08;;;1.35;;
32876;SDS011;19226;51.600;8.034;2022-09-29T16:09:52;1.60;;;1.48;;
32876;SDS011;19226;51.600;8.034;2022-09-29T16:12:36;2.47;;;1.17;;
32876;SDS011;19226;51.600;8.034;2022-09-29T16:15:05;1.83;;;1.50;;
32876;SDS011;19226;51.600;8.034;2022-09-29T16:17:36;4.65;;;1.65;;
32876;SDS011;19226;51.600;8.034;2022-09-29T16:20:04;13.45;;;2.13;;
32876;SDS011;19226;51.600;8.034;2022-09-29T16:25:24;21.23;;;2.90;;
32876;SDS011;19226;51.600;8.034;2022-09-29T16:27:57;15.68;;;2.40;;
32876;SDS011;19226;51.600;8.034;2022-09-29T16:30:29;12.05;;;1.52;;
32876;SDS011;19226;51.600;8.034;2022-09-29T16:33:22;3.17;;;1.35;;
32876;SDS011;19226;51.600;8.034;2022-09-29T16:39:17;5.75;;;2.10;;
32876;SDS011;19226;51.600;8.034;2022-09-29T16:42:24;3.17;;;1.75;;
32876;SDS011;19226;51.600;8.034;2022-09-29T16:44:56;5.95;;;1.92;;
32876;SDS011;19226;51.600;8.034;2022-09-29T16:47:29;2.50;;;1.63;;
32876;SDS011;19226;51.600;8.034;2022-09-29T16:52:46;4.00;;;1.27;;
32876;SDS011;19226;51.600;8.034;2022-09-29T16:59:24;1.38;;;1.27;;
32876;SDS011;19226;51.600;8.034;2022-09-29T17:01:55;2.20;;;1.65;;
32876;SDS011;19226;51.600;8.034;2022-09-29T17:07:13;3.55;;;1.30;;
32876;SDS011;19226;51.600;8.034;2022-09-29T17:13:10;1.70;;;1.60;;
32876;SDS011;19226;51.600;8.034;2022-09-29T17:18:09;5.82;;;4.10;;
32876;SDS011;19226;51.600;8.034;2022-09-29T17:20:59;12.50;;;6.53;;
32876;SDS011;19226;51.600;8.034;2022-09-29T17:23:28;14.15;;;7.90;;
32876;SDS011;19226;51.600;8.034;2022-09-29T17:25:58;17.63;;;8.50;;
32876;SDS011;19226;51.600;8.034;2022-09-29T17:28:45;15.32;;;8.18;;
32876;SDS011;19226;51.600;8.034;2022-09-29T17:34:22;8.82;;;5.25;;
32876;SDS011;19226;51.600;8.034;2022-09-29T17:37:27;7.80;;;5.28;;
32876;SDS011;19226;51.600;8.034;2022-09-29T17:43:16;9.18;;;4.60;;
32876;SDS011;19226;51.600;8.034;2022-09-29T17:48:36;9.00;;;4.28;;
32876;SDS011;19226;51.600;8.034;2022-09-29T17:51:12;10.90;;;4.35;;
32876;SDS011;19226;51.600;8.034;2022-09-29T17:53:54;10.73;;;7.97;;
32876;SDS011;19226;51.600;8.034;2022-09-29T17:56:39;11.65;;;8.98;;
32876;SDS011;19226;51.600;8.034;2022-09-29T17:59:40;11.82;;;6.18;;
32876;SDS011;19226;51.600;8.034;2022-09-29T18:02:14;8.63;;;5.53;;
32876;SDS011;19226;51.600;8.034;2022-09-29T18:05:06;6.47;;;5.40;;
32876;SDS011;19226;51.600;8.034;2022-09-29T18:10:59;8.10;;;4.65;;
32876;SDS011;19226;51.600;8.034;2022-09-29T18:13:30;7.30;;;3.97;;
32876;SDS011;19226;51.600;8.034;2022-09-29T18:15:57;3.83;;;3.28;;
32876;SDS011;19226;51.600;8.034;2022-09-29T18:21:30;9.43;;;3.30;;
32876;SDS011;19226;51.600;8.034;2022-09-29T18:23:59;11.77;;;2.97;;
32876;SDS011;19226;51.600;8.034;2022-09-29T18:26:26;5.10;;;2.83;;
32876;SDS011;19226;51.600;8.034;2022-09-29T18:31:43;7.28;;;2.45;;
32876;SDS011;19226;51.600;8.034;2022-09-29T18:34:18;4.18;;;2.90;;
32876;SDS011;19226;51.600;8.034;2022-09-29T18:36:47;3.53;;;3.20;;
32876;SDS011;19226;51.600;8.034;2022-09-29T18:39:14;11.93;;;3.08;;
32876;SDS011;19226;51.600;8.034;2022-09-29T18:41:41;6.47;;;3.80;;
32876;SDS011;19226;51.600;8.034;2022-09-29T18:44:11;8.15;;;3.92;;
32876;SDS011;19226;51.600;8.034;2022-09-29T18:46:40;5.53;;;3.65;;
32876;SDS011;19226;51.600;8.034;2022-09-29T18:49:09;5.63;;;3.88;;
32876;SDS011;19226;51.600;8.034;2022-09-29T18:51:37;5.17;;;3.97;;
32876;SDS011;19226;51.600;8.034;2022-09-29T18:54:05;7.25;;;3.67;;
32876;SDS011;19226;51.600;8.034;2022-09-29T18:56:32;9.13;;;4.30;;
32876;SDS011;19226;51.600;8.034;2022-09-29T18:58:58;11.93;;;4.53;;
32876;SDS011;19226;51.600;8.034;2022-09-29T19:01:25;6.57;;;4.32;;
32876;SDS011;19226;51.600;8.034;2022-09-29T19:06:39;17.45;;;11.40;;
32876;SDS011;19226;51.600;8.034;2022-09-29T19:09:06;19.73;;;14.35;;
32876;SDS011;19226;51.600;8.034;2022-09-29T19:11:32;28.00;;;16.08;;
32876;SDS011;19226;51.600;8.034;2022-09-29T19:17:02;15.35;;;11.20;;
32876;SDS011;19226;51.600;8.034;2022-09-29T19:19:32;19.90;;;9.88;;
32876;SDS011;19226;51.600;8.034;2022-09-29T19:21:58;13.90;;;9.48;;
32876;SDS011;19226;51.600;8.034;2022-09-29T19:24:24;15.23;;;10.10;;
32876;SDS011;19226;51.600;8.034;2022-09-29T19:26:50;12.93;;;7.45;;
32876;SDS011;19226;51.600;8.034;2022-09-29T19:29:18;9.38;;;6.93;;
32876;SDS011;19226;51.600;8.034;2022-09-29T19:31:44;6.57;;;5.50;;
32876;SDS011;19226;51.600;8.034;2022-09-29T19:37:18;7.13;;;5.55;;
32876;SDS011;19226;51.600;8.034;2022-09-29T19:39:44;8.40;;;5.88;;
32876;SDS011;19226;51.600;8.034;2022-09-29T19:42:13;10.45;;;4.80;;
32876;SDS011;19226;51.600;8.034;2022-09-29T19:44:43;7.55;;;5.45;;
32876;SDS011;19226;51.600;8.034;2022-09-29T19:47:10;11.80;;;5.28;;
32876;SDS011;19226;51.600;8.034;2022-09-29T19:49:38;8.90;;;6.35;;
32876;SDS011;19226;51.600;8.034;2022-09-29T19:52:04;10.85;;;6.75;;
32876;SDS011;19226;51.600;8.034;2022-09-29T19:57:16;9.25;;;6.28;;
32876;SDS011;19226;51.600;8.034;2022-09-29T20:02:39;6.85;;;5.75;;
32876;SDS011;19226;51.600;8.034;2022-09-29T20:05:08;26.60;;;10.90;;
32876;SDS011;19226;51.600;8.034;2022-09-29T20:07:38;152.13;;;47.75;;
32876;SDS011;19226;51.600;8.034;2022-09-29T20:10:06;65.35;;;20.88;;
32876;SDS011;19226;51.600;8.034;2022-09-29T20:12:36;56.75;;;19.65;;
32876;SDS011;19226;51.600;8.034;2022-09-29T20:15:05;229.75;;;87.00;;
32876;SDS011;19226;51.600;8.034;2022-09-29T20:17:33;117.82;;;44.63;;
32876;SDS011;19226;51.600;8.034;2022-09-29T20:20:02;66.88;;;26.85;;
32876;SDS011;19226;51.600;8.034;2022-09-29T20:22:28;39.35;;;18.83;;
32876;SDS011;19226;51.600;8.034;2022-09-29T20:25:04;23.50;;;13.48;;
32876;SDS011;19226;51.600;8.034;2022-09-29T20:27:34;17.73;;;11.15;;
32876;SDS011;19226;51.600;8.034;2022-09-29T20:30:00;16.02;;;8.55;;
32876;SDS011;19226;51.600;8.034;2022-09-29T20:32:29;12.85;;;7.45;;
32876;SDS011;19226;51.600;8.034;2022-09-29T20:34:57;9.70;;;6.90;;
32876;SDS011;19226;51.600;8.034;2022-09-29T20:37:26;9.82;;;6.30;;
32876;SDS011;19226;51.600;8.034;2022-09-29T20:39:55;8.32;;;5.60;;
32876;SDS011;19226;51.600;8.034;2022-09-29T20:42:23;6.65;;;5.10;;
32876;SDS011;19226;51.600;8.034;2022-09-29T20:44:52;8.68;;;4.90;;
32876;SDS011;19226;51.600;8.034;2022-09-29T20:47:22;9.82;;;5.90;;
32876;SDS011;19226;51.600;8.034;2022-09-29T20:49:50;9.38;;;5.95;;
32876;SDS011;19226;51.600;8.034;2022-09-29T20:52:22;6.63;;;4.93;;
32876;SDS011;19226;51.600;8.034;2022-09-29T20:55:08;6.45;;;5.13;;
32876;SDS011;19226;51.600;8.034;2022-09-29T20:57:43;9.50;;;4.43;;
32876;SDS011;19226;51.600;8.034;2022-09-29T21:00:09;6.38;;;4.28;;
32876;SDS011;19226;51.600;8.034;2022-09-29T21:02:37;4.15;;;3.83;;
32876;SDS011;19226;51.600;8.034;2022-09-29T21:05:04;10.88;;;3.90;;
32876;SDS011;19226;51.600;8.034;2022-09-29T21:07:30;7.88;;;4.30;;
32876;SDS011;19226;51.600;8.034;2022-09-29T21:10:04;4.50;;;4.10;;
32876;SDS011;19226;51.600;8.034;2022-09-29T21:12:31;9.70;;;3.80;;
32876;SDS011;19226;51.600;8.034;2022-09-29T21:14:58;5.85;;;3.33;;
32876;SDS011;19226;51.600;8.034;2022-09-29T21:17:25;5.28;;;3.83;;
32876;SDS011;19226;51.600;8.034;2022-09-29T21:19:52;8.20;;;3.72;;
32876;SDS011;19226;51.600;8.034;2022-09-29T21:22:19;4.03;;;3.65;;
32876;SDS011;19226;51.600;8.034;2022-09-29T21:24:45;10.32;;;4.10;;
32876;SDS011;19226;51.600;8.034;2022-09-29T21:27:11;7.20;;;3.47;;
32876;SDS011;19226;51.600;8.034;2022-09-29T21:29:38;4.78;;;3.83;;
32876;SDS011;19226;51.600;8.034;2022-09-29T21:32:04;6.53;;;4.43;;
32876;SDS011;19226;51.600;8.034;2022-09-29T21:34:30;6.93;;;4.43;;
32876;SDS011;19226;51.600;8.034;2022-09-29T21:36:57;5.53;;;3.83;;
32876;SDS011;19226;51.600;8.034;2022-09-29T21:39:23;5.20;;;4.32;;
32876;SDS011;19226;51.600;8.034;2022-09-29T21:41:50;4.43;;;4.00;;
32876;SDS011;19226;51.600;8.034;2022-09-29T21:44:19;5.38;;;3.85;;
32876;SDS011;19226;51.600;8.034;2022-09-29T21:46:48;4.15;;;3.50;;
32876;SDS011;19226;51.600;8.034;2022-09-29T21:52:00;4.78;;;4.15;;
32876;SDS011;19226;51.600;8.034;2022-09-29T21:57:13;7.85;;;3.90;;
32876;SDS011;19226;51.600;8.034;2022-09-29T21:59:39;5.20;;;4.15;;
32876;SDS011;19226;51.600;8.034;2022-09-29T22:02:06;5.35;;;4.63;;
32876;SDS011;19226;51.600;8.034;2022-09-29T22:04:32;5.05;;;4.20;;
32876;SDS011;19226;51.600;8.034;2022-09-29T22:07:01;5.63;;;5.00;;
32876;SDS011;19226;51.600;8.034;2022-09-29T22:09:27;6.43;;;4.30;;
32876;SDS011;19226;51.600;8.034;2022-09-29T22:11:54;5.45;;;4.40;;
32876;SDS011;19226;51.600;8.034;2022-09-29T22:14:23;7.03;;;4.60;;
32876;SDS011;19226;51.600;8.034;2022-09-29T22:16:53;8.35;;;4.68;;
32876;SDS011;19226;51.600;8.034;2022-09-29T22:19:19;5.93;;;4.57;;
32876;SDS011;19226;51.600;8.034;2022-09-29T22:21:46;7.22;;;4.63;;
32876;SDS011;19226;51.600;8.034;2022-09-29T22:24:12;5.15;;;4.68;;
32876;SDS011;19226;51.600;8.034;2022-09-29T22:26:39;5.40;;;4.53;;
32876;SDS011;19226;51.600;8.034;2022-09-29T22:29:05;5.45;;;4.90;;
32876;SDS011;19226;51.600;8.034;2022-09-29T22:31:33;5.60;;;4.47;;
32876;SDS011;19226;51.600;8.034;2022-09-29T22:34:00;15.27;;;5.03;;
32876;SDS011;19226;51.600;8.034;2022-09-29T22:36:29;5.50;;;4.38;;
32876;SDS011;19226;51.600;8.034;2022-09-29T22:38:57;6.45;;;4.68;;
32876;SDS011;19226;51.600;8.034;2022-09-29T22:41:26;8.23;;;4.55;;
32876;SDS011;19226;51.600;8.034;2022-09-29T22:43:53;4.80;;;4.30;;
32876;SDS011;19226;51.600;8.034;2022-09-29T22:46:23;9.23;;;4.68;;
32876;SDS011;19226;51.600;8.034;2022-09-29T22:48:51;7.13;;;4.77;;
32876;SDS011;19226;51.600;8.034;2022-09-29T22:54:04;6.10;;;4.80;;
32876;SDS011;19226;51.600;8.034;2022-09-29T22:56:30;5.68;;;4.30;;
32876;SDS011;19226;51.600;8.034;2022-09-29T22:59:00;7.22;;;4.15;;
32876;SDS011;19226;51.600;8.034;2022-09-29T23:01:28;10.93;;;4.40;;
32876;SDS011;19226;51.600;8.034;2022-09-29T23:03:55;5.38;;;4.18;;
32876;SDS011;19226;51.600;8.034;2022-09-29T23:06:29;6.07;;;4.95;;
32876;SDS011;19226;51.600;8.034;2022-09-29T23:08:56;9.23;;;4.60;;
32876;SDS011;19226;51.600;8.034;2022-09-29T23:14:11;7.00;;;4.35;;
32876;SDS011;19226;51.600;8.034;2022-09-29T23:16:41;12.88;;;5.05;;